sensor_id;sensor_type;location;lat;lon;timestamp;pressure;altitude;pressure_sealevel;temperature
74043;BMP280;62384;53.600;10.040;2022-08-19T00:01:45;100505.44;;;20.13
74043;BMP280;62384;53.600;10.040;2022-08-19T00:04:14;100490.38;;;20.09
74043;BMP280;62384;53.600;10.040;2022-08-19T00:06:41;100488.72;;;20.11
74043;BMP280;62384;53.600;10.040;2022-08-19T00:09:09;100475.38;;;20.17
74043;BMP280;62384;53.600;10.040;2022-08-19T00:11:36;100467.59;;;20.15
74043;BMP280;62384;53.600;10.040;2022-08-19T00:14:03;100450.72;;;20.20
74043;BMP280;62384;53.600;10.040;2022-08-19T00:16:28;100459.91;;;20.26
74043;BMP280;62384;53.600;10.040;2022-08-19T00:18:54;100457.19;;;20.26
74043;BMP280;62384;53.600;10.040;2022-08-19T00:21:20;100458.56;;;20.18
74043;BMP280;62384;53.600;10.040;2022-08-19T00:23:46;100450.16;;;20.13
74043;BMP280;62384;53.600;10.040;2022-08-19T00:26:11;100449.03;;;20.10
74043;BMP280;62384;53.600;10.040;2022-08-19T00:28:38;100445.22;;;20.08
74043;BMP280;62384;53.600;10.040;2022-08-19T00:31:05;100461.91;;;20.10
74043;BMP280;62384;53.600;10.040;2022-08-19T00:33:31;100442.47;;;20.08
74043;BMP280;62384;53.600;10.040;2022-08-19T00:35:58;100446.66;;;20.12
74043;BMP280;62384;53.600;10.040;2022-08-19T00:38:23;100447.84;;;20.11
74043;BMP280;62384;53.600;10.040;2022-08-19T00:40:49;100452.03;;;20.16
74043;BMP280;62384;53.600;10.040;2022-08-19T00:43:19;100440.00;;;20.13
74043;BMP280;62384;53.600;10.040;2022-08-19T00:45:45;100464.09;;;20.15
74043;BMP280;62384;53.600;10.040;2022-08-19T00:48:10;100436.53;;;20.13
74043;BMP280;62384;53.600;10.040;2022-08-19T00:50:38;100425.34;;;20.07
74043;BMP280;62384;53.600;10.040;2022-08-19T00:53:06;100431.16;;;20.09
74043;BMP280;62384;53.600;10.040;2022-08-19T00:55:32;100425.34;;;20.07
74043;BMP280;62384;53.600;10.040;2022-08-19T00:58:02;100427.13;;;20.14
74043;BMP280;62384;53.600;10.040;2022-08-19T01:00:30;100430.72;;;20.11
74043;BMP280;62384;53.600;10.040;2022-08-19T01:02:56;100428.34;;;20.13
74043;BMP280;62384;53.600;10.040;2022-08-19T01:05:26;100438.69;;;20.18
74043;BMP280;62384;53.600;10.040;2022-08-19T01:07:54;100456.28;;;20.17
74043;BMP280;62384;53.600;10.040;2022-08-19T01:10:24;100452.44;;;20.14
74043;BMP280;62384;53.600;10.040;2022-08-19T01:12:51;100437.72;;;20.12
74043;BMP280;62384;53.600;10.040;2022-08-19T01:15:21;100457.09;;;20.14
74043;BMP280;62384;53.600;10.040;2022-08-19T01:17:49;100446.91;;;20.02
74043;BMP280;62384;53.600;10.040;2022-08-19T01:20:18;100438.97;;;20.07
74043;BMP280;62384;53.600;10.040;2022-08-19T01:22:47;100441.53;;;20.14
74043;BMP280;62384;53.600;10.040;2022-08-19T01:25:15;100443.56;;;20.10
74043;BMP280;62384;53.600;10.040;2022-08-19T01:27:44;100441.63;;;20.11
74043;BMP280;62384;53.600;10.040;2022-08-19T01:30:16;100414.97;;;20.02
74043;BMP280;62384;53.600;10.040;2022-08-19T01:32:42;100433.88;;;20.09
74043;BMP280;62384;53.600;10.040;2022-08-19T01:35:10;100416.44;;;20.07
74043;BMP280;62384;53.600;10.040;2022-08-19T01:37:57;100412.25;;;20.02
74043;BMP280;62384;53.600;10.040;2022-08-19T01:40:26;100404.47;;;20.01
74043;BMP280;62384;53.600;10.040;2022-08-19T01:42:52;100410.44;;;20.12
74043;BMP280;62384;53.600;10.040;2022-08-19T01:45:21;100399.31;;;20.06
74043;BMP280;62384;53.600;10.040;2022-08-19T01:47:47;100404.75;;;20.06
74043;BMP280;62384;53.600;10.040;2022-08-19T01:50:13;100393.59;;;20.01
74043;BMP280;62384;53.600;10.040;2022-08-19T01:52:40;100386.19;;;20.01
74043;BMP280;62384;53.600;10.040;2022-08-19T01:55:10;100375.13;;;19.92
74043;BMP280;62384;53.600;10.040;2022-08-19T01:57:37;100378.97;;;19.95
74043;BMP280;62384;53.600;10.040;2022-08-19T02:00:07;100364.22;;;19.92
74043;BMP280;62384;53.600;10.040;2022-08-19T02:02:32;100380.72;;;20.01
74043;BMP280;62384;53.600;10.040;2022-08-19T02:04:58;100374.28;;;19.95
74043;BMP280;62384;53.600;10.040;2022-08-19T02:07:24;100352.34;;;19.86
74043;BMP280;62384;53.600;10.040;2022-08-19T02:09:50;100360.06;;;19.88
74043;BMP280;62384;53.600;10.040;2022-08-19T02:12:16;100353.50;;;19.85
74043;BMP280;62384;53.600;10.040;2022-08-19T02:14:41;100350.19;;;19.77
74043;BMP280;62384;53.600;10.040;2022-08-19T02:17:07;100347.47;;;19.77
74043;BMP280;62384;53.600;10.040;2022-08-19T02:19:33;100328.75;;;19.79
74043;BMP280;62384;53.600;10.040;2022-08-19T02:21:59;100324.06;;;19.80
74043;BMP280;62384;53.600;10.040;2022-08-19T02:24:25;100312.59;;;19.72
74043;BMP280;62384;53.600;10.040;2022-08-19T02:26:50;100307.56;;;19.71
74043;BMP280;62384;53.600;10.040;2022-08-19T02:29:16;100298.53;;;19.74
74043;BMP280;62384;53.600;10.040;2022-08-19T02:31:41;100285.44;;;19.69
74043;BMP280;62384;53.600;10.040;2022-08-19T02:34:06;100274.22;;;19.67
74043;BMP280;62384;53.600;10.040;2022-08-19T02:36:32;100278.06;;;19.69
74043;BMP280;62384;53.600;10.040;2022-08-19T02:38:57;100287.00;;;19.70
74043;BMP280;62384;53.600;10.040;2022-08-19T02:41:25;100290.38;;;19.74
74043;BMP280;62384;53.600;10.040;2022-08-19T02:43:50;100295.06;;;19.73
74043;BMP280;62384;53.600;10.040;2022-08-19T02:46:19;100289.25;;;19.71
74043;BMP280;62384;53.600;10.040;2022-08-19T02:48:50;100298.19;;;19.72
74043;BMP280;62384;53.600;10.040;2022-08-19T02:51:28;100289.78;;;19.66
74043;BMP280;62384;53.600;10.040;2022-08-19T02:53:54;100289.34;;;19.68
74043;BMP280;62384;53.600;10.040;2022-08-19T02:56:20;100281.19;;;19.68
74043;BMP280;62384;53.600;10.040;2022-08-19T02:58:46;100292.06;;;19.68
74043;BMP280;62384;53.600;10.040;2022-08-19T03:01:20;100296.00;;;19.67
74043;BMP280;62384;53.600;10.040;2022-08-19T03:03:45;100257.56;;;19.33
74043;BMP280;62384;53.600;10.040;2022-08-19T03:06:14;100296.88;;;19.64
74043;BMP280;62384;53.600;10.040;2022-08-19T03:08:42;100299.78;;;19.57
74043;BMP280;62384;53.600;10.040;2022-08-19T03:11:26;100291.69;;;19.53
74043;BMP280;62384;53.600;10.040;2022-08-19T03:13:52;100287.75;;;19.54
74043;BMP280;62384;53.600;10.040;2022-08-19T03:16:21;100283.59;;;19.50
74043;BMP280;62384;53.600;10.040;2022-08-19T03:18:47;100290.38;;;19.58
74043;BMP280;62384;53.600;10.040;2022-08-19T03:21:20;100281.13;;;19.55
74043;BMP280;62384;53.600;10.040;2022-08-19T03:23:46;100294.34;;;19.57
74043;BMP280;62384;53.600;10.040;2022-08-19T03:26:11;100291.25;;;19.55
74043;BMP280;62384;53.600;10.040;2022-08-19T03:28:37;100296.28;;;19.56
74043;BMP280;62384;53.600;10.040;2022-08-19T03:31:10;100289.13;;;19.46
74043;BMP280;62384;53.600;10.040;2022-08-19T03:33:35;100287.69;;;19.42
74043;BMP280;62384;53.600;10.040;2022-08-19T03:38:33;100293.03;;;19.45
74043;BMP280;62384;53.600;10.040;2022-08-19T03:41:02;100294.09;;;19.35
74043;BMP280;62384;53.600;10.040;2022-08-19T03:43:28;100285.47;;;19.37
74043;BMP280;62384;53.600;10.040;2022-08-19T03:46:05;100288.88;;;19.41
74043;BMP280;62384;53.600;10.040;2022-08-19T03:48:31;100279.53;;;19.26
74043;BMP280;62384;53.600;10.040;2022-08-19T03:50:58;100264.75;;;19.11
74043;BMP280;62384;53.600;10.040;2022-08-19T03:53:25;100295.00;;;19.29
74043;BMP280;62384;53.600;10.040;2022-08-19T03:55:51;100294.81;;;19.36
74043;BMP280;62384;53.600;10.040;2022-08-19T03:58:18;100300.13;;;19.27
74043;BMP280;62384;53.600;10.040;2022-08-19T04:00:43;100315.78;;;19.39
74043;BMP280;62384;53.600;10.040;2022-08-19T04:03:09;100277.75;;;19.19
74043;BMP280;62384;53.600;10.040;2022-08-19T04:05:34;100284.88;;;19.45
74043;BMP280;62384;53.600;10.040;2022-08-19T04:07:59;100320.19;;;19.49
74043;BMP280;62384;53.600;10.040;2022-08-19T04:10:27;100333.47;;;19.47
74043;BMP280;62384;53.600;10.040;2022-08-19T04:12:53;100329.47;;;19.51
74043;BMP280;62384;53.600;10.040;2022-08-19T04:15:18;100347.34;;;19.52
74043;BMP280;62384;53.600;10.040;2022-08-19T04:17:44;100353.56;;;19.53
74043;BMP280;62384;53.600;10.040;2022-08-19T04:20:09;100352.44;;;19.50
74043;BMP280;62384;53.600;10.040;2022-08-19T04:22:35;100364.88;;;19.51
74043;BMP280;62384;53.600;10.040;2022-08-19T04:25:00;100368.28;;;19.55
74043;BMP280;62384;53.600;10.040;2022-08-19T04:27:25;100389.28;;;19.55
74043;BMP280;62384;53.600;10.040;2022-08-19T04:29:51;100383.53;;;19.53
74043;BMP280;62384;53.600;10.040;2022-08-19T04:32:17;100393.28;;;19.50
74043;BMP280;62384;53.600;10.040;2022-08-19T04:34:42;100386.72;;;19.48
74043;BMP280;62384;53.600;10.040;2022-08-19T04:37:08;100382.88;;;19.45
74043;BMP280;62384;53.600;10.040;2022-08-19T04:39:38;100389.19;;;19.42
74043;BMP280;62384;53.600;10.040;2022-08-19T04:42:22;100386.38;;;19.46
74043;BMP280;62384;53.600;10.040;2022-08-19T04:45:05;100377.91;;;19.44
74043;BMP280;62384;53.600;10.040;2022-08-19T04:47:31;100376.69;;;19.45
74043;BMP280;62384;53.600;10.040;2022-08-19T04:49:57;100388.34;;;19.45
74043;BMP280;62384;53.600;10.040;2022-08-19T04:52:26;100381.72;;;19.46
74043;BMP280;62384;53.600;10.040;2022-08-19T04:54:51;100398.47;;;19.45
74043;BMP280;62384;53.600;10.040;2022-08-19T04:57:16;100402.72;;;19.46
74043;BMP280;62384;53.600;10.040;2022-08-19T04:59:41;100403.59;;;19.43
74043;BMP280;62384;53.600;10.040;2022-08-19T05:02:08;100392.00;;;19.39
74043;BMP280;62384;53.600;10.040;2022-08-19T05:04:34;100398.63;;;19.38
74043;BMP280;62384;53.600;10.040;2022-08-19T05:07:00;100384.28;;;19.37
74043;BMP280;62384;53.600;10.040;2022-08-19T05:09:26;100385.22;;;19.31
74043;BMP280;62384;53.600;10.040;2022-08-19T05:11:51;100394.72;;;19.39
74043;BMP280;62384;53.600;10.040;2022-08-19T05:14:18;100398.53;;;19.41
74043;BMP280;62384;53.600;10.040;2022-08-19T05:16:45;100399.41;;;19.38
74043;BMP280;62384;53.600;10.040;2022-08-19T05:19:10;100412.44;;;19.31
74043;BMP280;62384;53.600;10.040;2022-08-19T05:21:54;100417.78;;;19.34
74043;BMP280;62384;53.600;10.040;2022-08-19T05:24:38;100417.03;;;19.34
74043;BMP280;62384;53.600;10.040;2022-08-19T05:27:03;100420.84;;;19.36
74043;BMP280;62384;53.600;10.040;2022-08-19T05:29:31;100425.09;;;19.37
74043;BMP280;62384;53.600;10.040;2022-08-19T05:31:58;100415.47;;;19.33
74043;BMP280;62384;53.600;10.040;2022-08-19T05:34:25;100412.50;;;19.27
74043;BMP280;62384;53.600;10.040;2022-08-19T05:36:57;100421.94;;;19.39
74043;BMP280;62384;53.600;10.040;2022-08-19T05:39:25;100430.91;;;19.39
74043;BMP280;62384;53.600;10.040;2022-08-19T05:42:06;100426.63;;;19.38
74043;BMP280;62384;53.600;10.040;2022-08-19T05:44:34;100430.47;;;19.41
74043;BMP280;62384;53.600;10.040;2022-08-19T05:47:02;100409.94;;;19.36
74043;BMP280;62384;53.600;10.040;2022-08-19T05:49:28;100416.50;;;19.39
74043;BMP280;62384;53.600;10.040;2022-08-19T05:51:54;100415.75;;;19.38
74043;BMP280;62384;53.600;10.040;2022-08-19T05:54:21;100414.97;;;19.38
74043;BMP280;62384;53.600;10.040;2022-08-19T05:56:48;100380.78;;;19.37
74043;BMP280;62384;53.600;10.040;2022-08-19T05:59:16;100414.56;;;19.39
74043;BMP280;62384;53.600;10.040;2022-08-19T06:01:45;100391.22;;;19.38
74043;BMP280;62384;53.600;10.040;2022-08-19T06:04:12;100420.00;;;19.39
74043;BMP280;62384;53.600;10.040;2022-08-19T06:06:39;100408.34;;;19.39
74043;BMP280;62384;53.600;10.040;2022-08-19T06:09:05;100385.00;;;19.38
74043;BMP280;62384;53.600;10.040;2022-08-19T06:11:34;100426.63;;;19.38
74043;BMP280;62384;53.600;10.040;2022-08-19T06:14:07;100406.44;;;19.36
74043;BMP280;62384;53.600;10.040;2022-08-19T06:16:41;100427.47;;;19.35
74043;BMP280;62384;53.600;10.040;2022-08-19T06:19:09;100414.63;;;19.36
74043;BMP280;62384;53.600;10.040;2022-08-19T06:21:37;100393.56;;;19.40
74043;BMP280;62384;53.600;10.040;2022-08-19T06:24:04;100436.94;;;19.47
74043;BMP280;62384;53.600;10.040;2022-08-19T06:26:31;100424.09;;;19.47
74043;BMP280;62384;53.600;10.040;2022-08-19T06:28:56;100415.09;;;19.50
74043;BMP280;62384;53.600;10.040;2022-08-19T06:31:25;100417.72;;;19.54
74043;BMP280;62384;53.600;10.040;2022-08-19T06:33:51;100413.72;;;19.58
74043;BMP280;62384;53.600;10.040;2022-08-19T06:36:25;100437.13;;;19.56
74043;BMP280;62384;53.600;10.040;2022-08-19T06:39:03;100426.16;;;19.59
74043;BMP280;62384;53.600;10.040;2022-08-19T06:41:30;100419.41;;;19.48
74043;BMP280;62384;53.600;10.040;2022-08-19T06:43:56;100433.72;;;19.68
74043;BMP280;62384;53.600;10.040;2022-08-19T06:46:22;100455.03;;;19.73
74043;BMP280;62384;53.600;10.040;2022-08-19T06:48:48;100452.13;;;19.80
74043;BMP280;62384;53.600;10.040;2022-08-19T06:51:16;100449.47;;;19.76
74043;BMP280;62384;53.600;10.040;2022-08-19T06:53:47;100420.00;;;19.71
74043;BMP280;62384;53.600;10.040;2022-08-19T06:56:17;100443.84;;;19.67
74043;BMP280;62384;53.600;10.040;2022-08-19T06:58:43;100428.09;;;19.75
74043;BMP280;62384;53.600;10.040;2022-08-19T07:01:09;100431.28;;;19.73
74043;BMP280;62384;53.600;10.040;2022-08-19T07:03:36;100455.03;;;19.73
74043;BMP280;62384;53.600;10.040;2022-08-19T07:06:05;100453.16;;;19.70
74043;BMP280;62384;53.600;10.040;2022-08-19T07:08:30;100458.41;;;19.61
74043;BMP280;62384;53.600;10.040;2022-08-19T07:10:55;100439.84;;;19.72
74043;BMP280;62384;53.600;10.040;2022-08-19T07:13:21;100454.59;;;19.74
74043;BMP280;62384;53.600;10.040;2022-08-19T07:15:47;100449.31;;;19.84
74043;BMP280;62384;53.600;10.040;2022-08-19T07:18:16;100477.38;;;19.80
74043;BMP280;62384;53.600;10.040;2022-08-19T07:20:42;100463.09;;;19.76
74043;BMP280;62384;53.600;10.040;2022-08-19T07:23:08;100468.13;;;19.78
74043;BMP280;62384;53.600;10.040;2022-08-19T07:25:36;100473.16;;;19.79
74043;BMP280;62384;53.600;10.040;2022-08-19T07:28:01;100478.16;;;19.81
74043;BMP280;62384;53.600;10.040;2022-08-19T07:30:27;100473.00;;;19.87
74043;BMP280;62384;53.600;10.040;2022-08-19T07:32:52;100500.66;;;19.85
74043;BMP280;62384;53.600;10.040;2022-08-19T07:35:17;100505.69;;;20.03
74043;BMP280;62384;53.600;10.040;2022-08-19T07:37:44;100496.81;;;20.15
74043;BMP280;62384;53.600;10.040;2022-08-19T07:40:11;100537.31;;;20.16
74043;BMP280;62384;53.600;10.040;2022-08-19T07:42:37;100542.66;;;20.20
74043;BMP280;62384;53.600;10.040;2022-08-19T07:45:03;100544.19;;;20.21
74043;BMP280;62384;53.600;10.040;2022-08-19T07:47:29;100545.09;;;20.14
74043;BMP280;62384;53.600;10.040;2022-08-19T07:49:55;100536.38;;;20.07
74043;BMP280;62384;53.600;10.040;2022-08-19T07:52:20;100549.03;;;20.13
74043;BMP280;62384;53.600;10.040;2022-08-19T07:54:45;100540.88;;;20.13
74043;BMP280;62384;53.600;10.040;2022-08-19T07:57:10;100534.91;;;20.18
74043;BMP280;62384;53.600;10.040;2022-08-19T07:59:36;100536.53;;;20.16
74043;BMP280;62384;53.600;10.040;2022-08-19T08:02:02;100550.25;;;20.28
74043;BMP280;62384;53.600;10.040;2022-08-19T08:04:31;100569.16;;;20.19
74043;BMP280;62384;53.600;10.040;2022-08-19T08:07:15;100556.53;;;20.09
74043;BMP280;62384;53.600;10.040;2022-08-19T08:10:16;100532.88;;;20.06
74043;BMP280;62384;53.600;10.040;2022-08-19T08:12:41;100551.72;;;20.17
74043;BMP280;62384;53.600;10.040;2022-08-19T08:15:13;100561.94;;;20.13
74043;BMP280;62384;53.600;10.040;2022-08-19T08:17:45;100552.19;;;20.12
74043;BMP280;62384;53.600;10.040;2022-08-19T08:20:12;100563.88;;;20.12
74043;BMP280;62384;53.600;10.040;2022-08-19T08:22:42;100548.78;;;20.08
74043;BMP280;62384;53.600;10.040;2022-08-19T08:25:26;100558.16;;;20.07
74043;BMP280;62384;53.600;10.040;2022-08-19T08:27:52;100549.13;;;20.10
74043;BMP280;62384;53.600;10.040;2022-08-19T08:30:23;100556.47;;;20.13
74043;BMP280;62384;53.600;10.040;2022-08-19T08:32:49;100521.88;;;19.94
74043;BMP280;62384;53.600;10.040;2022-08-19T08:35:18;100551.34;;;20.15
74043;BMP280;62384;53.600;10.040;2022-08-19T08:37:45;100564.19;;;20.14
74043;BMP280;62384;53.600;10.040;2022-08-19T08:40:26;100577.91;;;20.11
74043;BMP280;62384;53.600;10.040;2022-08-19T08:43:02;100565.47;;;20.10
74043;BMP280;62384;53.600;10.040;2022-08-19T08:45:30;100555.69;;;20.12
74043;BMP280;62384;53.600;10.040;2022-08-19T08:47:58;100568.47;;;20.15
74043;BMP280;62384;53.600;10.040;2022-08-19T08:50:29;100571.97;;;20.16
74043;BMP280;62384;53.600;10.040;2022-08-19T08:52:58;100576.66;;;20.15
74043;BMP280;62384;53.600;10.040;2022-08-19T08:55:26;100580.94;;;20.16
74043;BMP280;62384;53.600;10.040;2022-08-19T08:58:00;100568.06;;;20.17
74043;BMP280;62384;53.600;10.040;2022-08-19T09:00:31;100570.69;;;20.04
74043;BMP280;62384;53.600;10.040;2022-08-19T09:02:58;100577.34;;;20.19
74043;BMP280;62384;53.600;10.040;2022-08-19T09:06:17;100573.66;;;20.26
74043;BMP280;62384;53.600;10.040;2022-08-19T09:08:36;100589.28;;;20.25
74043;BMP280;62384;53.600;10.040;2022-08-19T09:11:08;100556.72;;;20.18
74043;BMP280;62384;53.600;10.040;2022-08-19T09:13:41;100582.44;;;20.33
74043;BMP280;62384;53.600;10.040;2022-08-19T09:16:11;100579.38;;;20.31
74043;BMP280;62384;53.600;10.040;2022-08-19T09:18:49;100574.94;;;20.37
74043;BMP280;62384;53.600;10.040;2022-08-19T09:21:17;100584.34;;;20.36
74043;BMP280;62384;53.600;10.040;2022-08-19T09:23:43;100570.63;;;20.40
74043;BMP280;62384;53.600;10.040;2022-08-19T09:26:17;100609.44;;;20.28
74043;BMP280;62384;53.600;10.040;2022-08-19T09:28:44;100595.56;;;20.22
74043;BMP280;62384;53.600;10.040;2022-08-19T09:31:12;100605.19;;;20.27
74043;BMP280;62384;53.600;10.040;2022-08-19T09:33:38;100606.31;;;20.29
74043;BMP280;62384;53.600;10.040;2022-08-19T09:36:08;100622.09;;;20.38
74043;BMP280;62384;53.600;10.040;2022-08-19T09:38:35;100619.34;;;20.38
74043;BMP280;62384;53.600;10.040;2022-08-19T09:41:06;100605.63;;;20.41
74043;BMP280;62384;53.600;10.040;2022-08-19T09:43:32;100621.44;;;20.30
74043;BMP280;62384;53.600;10.040;2022-08-19T09:46:01;100606.91;;;20.37
74043;BMP280;62384;53.600;10.040;2022-08-19T09:48:27;100614.66;;;20.38
74043;BMP280;62384;53.600;10.040;2022-08-19T09:50:52;100603.44;;;20.36
74043;BMP280;62384;53.600;10.040;2022-08-19T09:53:18;100612.34;;;20.37
74043;BMP280;62384;53.600;10.040;2022-08-19T09:55:44;100578.09;;;20.36
74043;BMP280;62384;53.600;10.040;2022-08-19T09:58:09;100630.94;;;20.42
74043;BMP280;62384;53.600;10.040;2022-08-19T10:00:37;100592.91;;;20.19
74043;BMP280;62384;53.600;10.040;2022-08-19T10:03:03;100581.41;;;20.11
74043;BMP280;62384;53.600;10.040;2022-08-19T10:05:28;100601.00;;;20.38
74043;BMP280;62384;53.600;10.040;2022-08-19T10:08:12;100578.09;;;20.36
74043;BMP280;62384;53.600;10.040;2022-08-19T10:10:37;100596.69;;;20.41
74043;BMP280;62384;53.600;10.040;2022-08-19T10:13:02;100603.13;;;20.47
74043;BMP280;62384;53.600;10.040;2022-08-19T10:15:29;100601.56;;;20.49
74043;BMP280;62384;53.600;10.040;2022-08-19T10:17:55;100623.59;;;20.55
74043;BMP280;62384;53.600;10.040;2022-08-19T10:20:20;100613.22;;;20.50
74043;BMP280;62384;53.600;10.040;2022-08-19T10:22:47;100620.44;;;20.56
74043;BMP280;62384;53.600;10.040;2022-08-19T10:25:12;100623.53;;;20.58
74043;BMP280;62384;53.600;10.040;2022-08-19T10:27:42;100616.19;;;20.55
74043;BMP280;62384;53.600;10.040;2022-08-19T10:30:08;100614.81;;;20.63
74043;BMP280;62384;53.600;10.040;2022-08-19T10:32:34;100623.25;;;20.69
74043;BMP280;62384;53.600;10.040;2022-08-19T10:34:59;100609.81;;;20.62
74043;BMP280;62384;53.600;10.040;2022-08-19T10:37:24;100635.94;;;20.75
74043;BMP280;62384;53.600;10.040;2022-08-19T10:39:50;100666.28;;;20.94
74043;BMP280;62384;53.600;10.040;2022-08-19T10:42:15;100651.13;;;20.93
74043;BMP280;62384;53.600;10.040;2022-08-19T10:44:42;100652.63;;;20.94
74043;BMP280;62384;53.600;10.040;2022-08-19T10:47:08;100672.13;;;20.96
74043;BMP280;62384;53.600;10.040;2022-08-19T10:49:33;100665.28;;;20.88
74043;BMP280;62384;53.600;10.040;2022-08-19T10:52:19;100631.53;;;20.82
74043;BMP280;62384;53.600;10.040;2022-08-19T10:55:06;100634.41;;;20.91
74043;BMP280;62384;53.600;10.040;2022-08-19T10:57:50;100646.19;;;20.88
74043;BMP280;62384;53.600;10.040;2022-08-19T11:00:18;100614.78;;;20.79
74043;BMP280;62384;53.600;10.040;2022-08-19T11:02:43;100616.22;;;20.84
74043;BMP280;62384;53.600;10.040;2022-08-19T11:05:09;100628.16;;;20.90
74043;BMP280;62384;53.600;10.040;2022-08-19T11:07:39;100591.38;;;20.66
74043;BMP280;62384;53.600;10.040;2022-08-19T11:10:09;100616.91;;;20.88
74043;BMP280;62384;53.600;10.040;2022-08-19T11:12:39;100606.44;;;20.87
74043;BMP280;62384;53.600;10.040;2022-08-19T11:15:07;100623.66;;;20.83
74043;BMP280;62384;53.600;10.040;2022-08-19T11:17:34;100626.16;;;20.78
74043;BMP280;62384;53.600;10.040;2022-08-19T11:20:00;100601.94;;;20.64
74043;BMP280;62384;53.600;10.040;2022-08-19T11:22:29;100619.47;;;20.95
74043;BMP280;62384;53.600;10.040;2022-08-19T11:24:55;100645.53;;;20.96
74043;BMP280;62384;53.600;10.040;2022-08-19T11:27:20;100629.28;;;20.76
74043;BMP280;62384;53.600;10.040;2022-08-19T11:29:45;100646.00;;;20.95
74043;BMP280;62384;53.600;10.040;2022-08-19T11:32:11;100691.88;;;21.00
74043;BMP280;62384;53.600;10.040;2022-08-19T11:34:39;100680.50;;;21.17
74043;BMP280;62384;53.600;10.040;2022-08-19T11:37:07;100688.88;;;21.39
74043;BMP280;62384;53.600;10.040;2022-08-19T11:39:35;100706.47;;;21.66
74043;BMP280;62384;53.600;10.040;2022-08-19T11:42:02;100746.63;;;21.82
74043;BMP280;62384;53.600;10.040;2022-08-19T11:44:49;100773.97;;;21.82
74043;BMP280;62384;53.600;10.040;2022-08-19T11:47:15;100784.25;;;21.78
74043;BMP280;62384;53.600;10.040;2022-08-19T11:49:40;100804.38;;;21.84
74043;BMP280;62384;53.600;10.040;2022-08-19T11:52:05;100780.31;;;21.79
74043;BMP280;62384;53.600;10.040;2022-08-19T11:54:31;100775.59;;;21.79
74043;BMP280;62384;53.600;10.040;2022-08-19T11:57:03;100779.91;;;21.93
74043;BMP280;62384;53.600;10.040;2022-08-19T11:59:30;100777.72;;;21.88
74043;BMP280;62384;53.600;10.040;2022-08-19T12:01:56;100806.56;;;21.89
74043;BMP280;62384;53.600;10.040;2022-08-19T12:04:22;100747.91;;;21.65
74043;BMP280;62384;53.600;10.040;2022-08-19T12:06:48;100808.81;;;21.94
74043;BMP280;62384;53.600;10.040;2022-08-19T12:09:15;100817.78;;;21.95
74043;BMP280;62384;53.600;10.040;2022-08-19T12:11:41;100793.44;;;21.84
74043;BMP280;62384;53.600;10.040;2022-08-19T12:14:09;100808.84;;;21.78
74043;BMP280;62384;53.600;10.040;2022-08-19T12:16:35;100816.31;;;21.90
74043;BMP280;62384;53.600;10.040;2022-08-19T12:19:01;100820.81;;;21.97
74043;BMP280;62384;53.600;10.040;2022-08-19T12:21:30;100818.78;;;22.13
74043;BMP280;62384;53.600;10.040;2022-08-19T12:23:58;100826.88;;;22.04
74043;BMP280;62384;53.600;10.040;2022-08-19T12:26:24;100816.84;;;22.14
74043;BMP280;62384;53.600;10.040;2022-08-19T12:28:50;100834.13;;;22.23
74043;BMP280;62384;53.600;10.040;2022-08-19T12:31:16;100856.31;;;22.54
74043;BMP280;62384;53.600;10.040;2022-08-19T12:33:42;100880.84;;;22.70
74043;BMP280;62384;53.600;10.040;2022-08-19T12:36:10;100882.91;;;22.78
74043;BMP280;62384;53.600;10.040;2022-08-19T12:38:36;100890.59;;;22.83
74043;BMP280;62384;53.600;10.040;2022-08-19T12:41:03;100863.84;;;22.87
74043;BMP280;62384;53.600;10.040;2022-08-19T12:43:32;100861.41;;;22.64
74043;BMP280;62384;53.600;10.040;2022-08-19T12:45:59;100889.03;;;22.82
74043;BMP280;62384;53.600;10.040;2022-08-19T12:48:24;100894.19;;;23.06
74043;BMP280;62384;53.600;10.040;2022-08-19T12:50:50;100918.81;;;23.31
74043;BMP280;62384;53.600;10.040;2022-08-19T12:53:15;100923.84;;;23.45
74043;BMP280;62384;53.600;10.040;2022-08-19T12:55:41;100896.00;;;23.34
74043;BMP280;62384;53.600;10.040;2022-08-19T12:58:08;100948.19;;;23.89
74043;BMP280;62384;53.600;10.040;2022-08-19T13:00:34;100960.47;;;23.97
74043;BMP280;62384;53.600;10.040;2022-08-19T13:02:59;100956.41;;;23.89
74043;BMP280;62384;53.600;10.040;2022-08-19T13:05:28;100958.31;;;23.80
74043;BMP280;62384;53.600;10.040;2022-08-19T13:07:57;100941.00;;;23.70
74043;BMP280;62384;53.600;10.040;2022-08-19T13:10:27;100943.47;;;23.43
74043;BMP280;62384;53.600;10.040;2022-08-19T13:12:53;100914.31;;;23.37
74043;BMP280;62384;53.600;10.040;2022-08-19T13:15:20;100907.22;;;23.27
74043;BMP280;62384;53.600;10.040;2022-08-19T13:17:48;100926.72;;;23.29
74043;BMP280;62384;53.600;10.040;2022-08-19T13:20:18;100927.16;;;23.27
74043;BMP280;62384;53.600;10.040;2022-08-19T13:22:44;100906.78;;;23.28
74043;BMP280;62384;53.600;10.040;2022-08-19T13:25:11;100878.66;;;23.03
74043;BMP280;62384;53.600;10.040;2022-08-19T13:27:37;100895.81;;;23.16
74043;BMP280;62384;53.600;10.040;2022-08-19T13:30:04;100867.13;;;22.95
74043;BMP280;62384;53.600;10.040;2022-08-19T13:32:48;100903.25;;;23.28
74043;BMP280;62384;53.600;10.040;2022-08-19T13:35:32;100909.97;;;23.27
74043;BMP280;62384;53.600;10.040;2022-08-19T13:37:58;100894.16;;;23.31
74043;BMP280;62384;53.600;10.040;2022-08-19T13:40:25;100866.91;;;23.02
74043;BMP280;62384;53.600;10.040;2022-08-19T13:42:53;100901.75;;;23.27
74043;BMP280;62384;53.600;10.040;2022-08-19T13:45:22;100896.66;;;23.38
74043;BMP280;62384;53.600;10.040;2022-08-19T13:47:49;100889.53;;;23.40
74043;BMP280;62384;53.600;10.040;2022-08-19T13:50:18;100909.28;;;23.35
74043;BMP280;62384;53.600;10.040;2022-08-19T13:52:44;100890.00;;;23.39